createdAt,value
2019-04-03T00:00:18.267Z,50.10
2019-04-03T00:01:53.791Z,50.20
2019-04-03T00:03:30.288Z,50.20
2019-04-03T00:05:07.590Z,50.40
2019-04-03T00:06:43.478Z,50.30
2019-04-03T00:08:19.011Z,50.40
2019-04-03T00:09:54.546Z,50.50
2019-04-03T00:11:30.444Z,50.40
2019-04-03T00:13:05.970Z,50.60
2019-04-03T00:14:42.935Z,51.30
2019-04-03T00:16:18.803Z,50.60
2019-04-03T00:17:54.642Z,50.50
2019-04-03T00:19:30.842Z,50.80
2019-04-03T00:21:06.364Z,50.80
2019-04-03T00:22:41.896Z,50.70
2019-04-03T00:24:22.150Z,50.60
2019-04-03T00:25:57.583Z,50.90
2019-04-03T00:27:33.114Z,51.00
2019-04-03T00:29:08.674Z,51.20
2019-04-03T00:30:44.248Z,51.20
2019-04-03T00:32:19.765Z,51.80
2019-04-03T00:33:55.289Z,51.40
2019-04-03T00:35:30.914Z,51.30
2019-04-03T00:37:06.481Z,51.50
2019-04-03T00:38:41.969Z,51.50
2019-04-03T00:40:18.564Z,51.70
2019-04-03T00:41:54.621Z,51.60
2019-04-03T00:43:30.950Z,52.20
2019-04-03T00:45:07.832Z,51.60
2019-04-03T00:46:43.680Z,51.10
2019-04-03T00:48:19.296Z,51.40
2019-04-03T00:49:57.003Z,51.30
2019-04-03T00:51:32.048Z,51.40
2019-04-03T00:53:07.650Z,51.40
2019-04-03T00:54:43.282Z,51.20
2019-04-03T00:56:18.767Z,51.30
2019-04-03T00:57:56.077Z,51.40
2019-04-03T00:59:32.904Z,51.50
2019-04-03T01:01:10.477Z,51.40
2019-04-03T01:02:46.071Z,51.40
2019-04-03T01:04:21.585Z,51.50
2019-04-03T01:05:58.348Z,51.50
2019-04-03T01:07:34.420Z,51.60
2019-04-03T01:09:09.955Z,51.70
2019-04-03T01:10:45.492Z,51.70
2019-04-03T01:12:21.071Z,51.80
2019-04-03T01:13:56.694Z,51.90
2019-04-03T01:15:33.033Z,52.00
2019-04-03T01:17:08.977Z,52.10
2019-04-03T01:18:44.478Z,52.10
2019-04-03T01:20:20.055Z,52.10
2019-04-03T01:21:55.616Z,52.20
2019-04-03T01:23:31.152Z,52.30
2019-04-03T01:25:08.772Z,52.30
2019-04-03T01:26:46.388Z,52.40
2019-04-03T01:28:22.879Z,52.50
2019-04-03T01:29:58.698Z,52.60
2019-04-03T01:31:34.218Z,52.90
2019-04-03T01:33:09.757Z,53.50
2019-04-03T01:34:46.986Z,53.80
2019-04-03T01:36:22.665Z,53.70
2019-04-03T01:37:58.202Z,53.50
2019-04-03T01:39:33.992Z,53.40
2019-04-03T01:41:09.518Z,53.40
2019-04-03T01:42:45.058Z,53.40
2019-04-03T01:44:20.565Z,53.20
2019-04-03T01:45:56.886Z,53.20
2019-04-03T01:47:32.748Z,53.20
2019-04-03T01:49:08.279Z,53.20
2019-04-03T01:50:43.813Z,53.30
2019-04-03T01:52:19.388Z,53.20
2019-04-03T01:53:54.916Z,53.20
2019-04-03T01:55:30.589Z,53.20
2019-04-03T01:57:06.928Z,53.20
2019-04-03T01:58:43.496Z,53.20
2019-04-03T02:00:19.476Z,53.30
2019-04-03T02:01:55.075Z,53.40
2019-04-03T02:03:30.605Z,53.40
2019-04-03T02:05:08.926Z,53.70
2019-04-03T02:06:44.430Z,53.50
2019-04-03T02:08:19.957Z,53.70
2019-04-03T02:09:55.548Z,53.70
2019-04-03T02:11:31.103Z,53.80
2019-04-03T02:13:06.631Z,53.70
2019-04-03T02:14:42.175Z,53.70
2019-04-03T02:16:17.699Z,53.80
2019-04-03T02:17:54.919Z,54.00
2019-04-03T02:19:30.467Z,53.90
2019-04-03T02:21:06.000Z,53.80
2019-04-03T02:22:41.979Z,53.90
2019-04-03T02:24:17.457Z,53.80
2019-04-03T02:25:52.997Z,53.80
2019-04-03T02:27:28.516Z,53.90
2019-04-03T02:29:04.866Z,53.80
2019-04-03T02:30:44.784Z,53.80
2019-04-03T02:32:18.520Z,53.80
2019-04-03T02:33:54.052Z,53.80
2019-04-03T02:35:29.592Z,53.90
2019-04-03T02:37:05.106Z,53.80
2019-04-03T02:38:41.057Z,53.60
2019-04-03T02:40:16.759Z,53.80
2019-04-03T02:41:53.281Z,69.20
2019-04-03T02:43:28.818Z,52.90
2019-04-03T02:45:06.745Z,53.60
2019-04-03T02:46:42.282Z,53.60
2019-04-03T02:48:17.801Z,53.70
2019-04-03T02:49:53.400Z,53.80
2019-04-03T02:53:05.758Z,53.00
2019-04-03T02:54:43.014Z,57.20
2019-04-03T02:56:18.550Z,53.70
2019-04-03T02:57:55.237Z,52.90
2019-04-03T03:01:07.958Z,52.50
2019-04-03T03:02:45.125Z,53.20
2019-04-03T03:04:22.294Z,53.00
2019-04-03T03:06:00.678Z,52.90
2019-04-03T03:07:36.368Z,52.90
2019-04-03T03:09:13.640Z,52.90
2019-04-03T03:10:51.733Z,52.80
2019-04-03T03:12:28.848Z,52.90
2019-04-03T03:14:07.533Z,52.80
2019-04-03T03:15:43.854Z,52.70
2019-04-03T03:17:22.535Z,52.80
2019-04-03T03:19:00.876Z,52.70
2019-04-03T03:22:16.917Z,52.20
2019-04-03T03:23:50.441Z,52.60
2019-04-03T03:25:26.574Z,60.50
2019-04-03T03:27:02.862Z,54.80
2019-04-03T03:28:40.086Z,63.90
2019-04-03T03:30:41.905Z,51.70
2019-04-03T03:32:08.833Z,52.40
2019-04-03T03:33:37.530Z,52.10
2019-04-03T03:35:15.147Z,52.60
2019-04-03T03:36:48.862Z,52.50
2019-04-03T03:38:28.064Z,52.50
2019-04-03T03:40:04.616Z,52.60
2019-04-03T03:41:40.865Z,52.40
2019-04-03T03:43:17.755Z,52.40
2019-04-03T03:44:54.872Z,52.30
2019-04-03T03:46:30.620Z,52.20
2019-04-03T03:48:09.346Z,52.20
2019-04-03T03:49:44.694Z,52.20
2019-04-03T03:51:22.780Z,52.20
2019-04-03T03:52:59.805Z,52.10
2019-04-03T03:54:35.576Z,52.10
2019-04-03T03:56:11.407Z,52.00
2019-04-03T03:57:47.167Z,51.90
2019-04-03T03:59:23.093Z,51.90
2019-04-03T04:01:00.511Z,51.90
2019-04-03T04:02:37.884Z,51.90
2019-04-03T04:04:15.432Z,51.70
2019-04-03T04:05:53.845Z,51.70
2019-04-03T04:07:30.194Z,51.70
2019-04-03T04:09:08.387Z,51.70
2019-04-03T04:10:44.763Z,51.80
2019-04-03T04:12:21.055Z,51.80
2019-04-03T04:13:56.740Z,51.80
2019-04-03T04:15:32.446Z,51.80
2019-04-03T04:17:12.310Z,51.20
2019-04-03T04:18:45.685Z,51.90
2019-04-03T04:20:21.197Z,64.10
2019-04-03T04:23:32.336Z,50.70
2019-04-03T04:25:07.993Z,64.10
2019-04-03T04:29:55.957Z,50.50
2019-04-03T04:31:31.544Z,51.10
2019-04-03T04:33:07.092Z,51.20
2019-04-03T04:34:43.167Z,51.20
2019-04-03T04:36:18.684Z,51.30
2019-04-03T04:37:55.985Z,51.30
2019-04-03T04:39:33.369Z,51.30
2019-04-03T04:41:08.887Z,51.30
2019-04-03T04:42:44.704Z,51.40
2019-04-03T04:44:20.247Z,51.40
2019-04-03T04:45:55.765Z,51.40
2019-04-03T04:47:32.263Z,50.80
2019-04-03T04:49:08.093Z,51.40
2019-04-03T04:50:44.187Z,51.40
2019-04-03T04:52:19.719Z,51.30
2019-04-03T04:53:55.272Z,51.20
2019-04-03T04:55:31.549Z,50.60
2019-04-03T04:57:08.896Z,58.20
2019-04-03T04:58:44.936Z,50.50
2019-04-03T05:00:21.079Z,51.20
2019-04-03T05:01:58.455Z,51.20
2019-04-03T05:03:34.333Z,62.20
2019-04-03T05:08:20.770Z,61.10
2019-04-03T05:09:56.292Z,62.00
2019-04-03T05:11:31.827Z,51.00
2019-04-03T05:13:07.343Z,51.60
2019-04-03T05:14:42.866Z,51.50
2019-04-03T05:16:20.205Z,51.50
2019-04-03T05:17:57.704Z,51.50
2019-04-03T05:19:34.246Z,51.50
2019-04-03T05:21:09.960Z,51.50
2019-04-03T05:22:45.845Z,51.40
2019-04-03T05:24:21.394Z,51.40
2019-04-03T05:25:56.924Z,51.40
2019-04-03T05:27:34.461Z,51.40
2019-04-03T05:29:09.685Z,51.40
2019-04-03T05:30:46.020Z,51.10
2019-04-03T05:33:56.644Z,50.50
2019-04-03T05:37:07.283Z,59.40
2019-04-03T05:38:42.943Z,55.00
2019-04-03T05:40:18.506Z,50.40
2019-04-03T05:46:43.324Z,68.80
2019-04-03T05:51:31.425Z,50.00
2019-04-03T05:53:07.051Z,57.00
2019-04-03T05:54:44.353Z,50.40
2019-04-03T05:56:19.984Z,49.90
2019-04-03T05:57:55.514Z,49.80
2019-04-03T05:59:33.682Z,49.80
2019-04-03T06:04:20.452Z,49.80
2019-04-03T06:05:58.051Z,55.40
2019-04-03T06:07:33.589Z,68.00
2019-04-03T06:09:09.315Z,49.50
2019-04-03T06:12:20.009Z,49.50
2019-04-03T06:17:06.557Z,49.30
2019-04-03T06:18:42.036Z,56.60
2019-04-03T06:21:52.728Z,49.00
2019-04-03T06:23:28.466Z,57.50
2019-04-03T06:25:05.228Z,52.50
2019-04-03T06:28:18.038Z,52.00
2019-04-03T06:29:55.037Z,48.50
2019-04-03T06:31:30.974Z,48.80
2019-04-03T06:33:06.510Z,48.40
2019-04-03T06:34:43.557Z,48.20
2019-04-03T06:36:19.486Z,48.70
2019-04-03T06:42:44.930Z,47.90
2019-04-03T06:45:58.867Z,57.70
2019-04-03T06:47:35.759Z,47.30
2019-04-03T06:49:11.595Z,48.30
2019-04-03T06:52:23.139Z,46.80
2019-04-03T06:53:59.585Z,47.10
2019-04-03T06:55:36.471Z,47.00
2019-04-03T06:57:13.854Z,46.40
2019-04-03T07:00:24.875Z,55.90
2019-04-03T07:02:00.410Z,44.80
2019-04-03T07:06:46.608Z,44.10
2019-04-03T07:08:30.021Z,46.40
2019-04-03T07:11:34.461Z,50.10
2019-04-03T07:14:45.089Z,42.30
2019-04-03T07:16:20.609Z,49.80
2019-04-03T07:19:31.278Z,48.30
2019-04-03T07:21:06.807Z,42.20
2019-04-03T07:25:53.517Z,41.60
2019-04-03T07:27:30.423Z,41.40
2019-04-03T07:29:06.930Z,41.00
2019-04-03T07:33:53.642Z,46.80
2019-04-03T07:37:04.828Z,43.00
2019-04-03T07:38:41.116Z,39.50
2019-04-03T07:40:16.959Z,41.80
2019-04-03T07:43:30.388Z,37.50
2019-04-03T07:45:09.061Z,38.00
2019-04-03T07:46:44.617Z,38.40
2019-04-03T07:48:20.118Z,38.30
2019-04-03T07:49:55.653Z,37.00
2019-04-03T07:51:31.182Z,37.10
2019-04-03T07:53:06.729Z,36.60
2019-04-03T07:54:42.500Z,36.40
2019-04-03T07:56:18.152Z,36.50
2019-04-03T07:57:54.189Z,36.30
2019-04-03T07:59:29.707Z,35.90
2019-04-03T08:01:05.797Z,35.30
2019-04-03T08:04:18.413Z,35.00
2019-04-03T08:05:56.308Z,34.30
2019-04-03T08:07:32.486Z,34.30
2019-04-03T08:09:10.460Z,33.60
2019-04-03T08:10:46.083Z,33.80
2019-04-03T08:12:22.204Z,34.00
2019-04-03T08:13:57.904Z,34.30
2019-04-03T08:15:33.416Z,33.20
2019-04-03T08:17:08.944Z,33.40
2019-04-03T08:18:44.550Z,33.20
2019-04-03T08:20:20.589Z,32.90
2019-04-03T08:21:57.145Z,32.10
2019-04-03T08:23:32.683Z,32.30
2019-04-03T08:25:11.801Z,32.00
2019-04-03T08:26:47.021Z,32.10
2019-04-03T08:28:26.000Z,32.30
2019-04-03T08:30:00.123Z,32.20
2019-04-03T08:31:35.702Z,32.10
2019-04-03T08:33:17.369Z,31.50
2019-04-03T08:34:48.805Z,31.00
2019-04-03T08:36:26.381Z,30.30
2019-04-03T08:38:01.614Z,30.60
2019-04-03T08:39:37.157Z,30.70
2019-04-03T08:41:12.686Z,31.10
2019-04-03T08:42:48.642Z,31.50
2019-04-03T08:44:24.681Z,30.90
2019-04-03T08:46:00.187Z,30.60
2019-04-03T08:47:37.637Z,30.70
2019-04-03T08:49:12.946Z,30.60
2019-04-03T08:50:48.615Z,30.60
2019-04-03T08:52:24.175Z,31.10
2019-04-03T08:54:00.070Z,30.50
2019-04-03T08:55:35.604Z,30.70
2019-04-03T08:57:11.416Z,31.50
2019-04-03T08:58:47.107Z,31.60
2019-04-03T09:00:22.980Z,31.20
2019-04-03T09:01:58.512Z,31.10
2019-04-03T09:11:31.201Z,32.00
2019-04-03T09:13:16.765Z,33.20
2019-04-03T09:14:44.123Z,32.50
2019-04-03T09:17:54.757Z,34.20
2019-04-03T09:19:30.665Z,32.80
2019-04-03T09:22:41.659Z,33.00
2019-04-03T09:24:17.179Z,38.70
2019-04-03T09:25:52.708Z,32.90
2019-04-03T09:27:29.057Z,32.90
2019-04-03T09:29:04.587Z,32.70
2019-04-03T09:30:40.180Z,33.00
2019-04-03T09:32:15.814Z,32.70
2019-04-03T09:35:26.631Z,32.30
2019-04-03T09:37:02.338Z,37.40
2019-04-03T09:38:40.665Z,33.00
2019-04-03T09:40:17.236Z,33.00
2019-04-03T09:41:52.659Z,33.50
2019-04-03T09:43:29.178Z,34.10
2019-04-03T09:45:06.534Z,33.10
2019-04-03T09:46:44.557Z,33.50
2019-04-03T09:48:19.570Z,35.90
2019-04-03T09:49:55.261Z,33.80
2019-04-03T09:53:06.739Z,33.60
2019-04-03T09:54:42.301Z,33.70
2019-04-03T09:56:17.828Z,33.50
2019-04-03T09:57:53.450Z,33.50
2019-04-03T09:59:29.932Z,33.40
2019-04-03T10:01:07.667Z,33.00
2019-04-03T10:02:44.317Z,32.60
2019-04-03T10:04:20.989Z,31.90
2019-04-03T10:05:58.197Z,31.60
2019-04-03T10:07:36.339Z,31.60
2019-04-03T10:09:12.032Z,31.10
2019-04-03T10:10:48.358Z,31.20
2019-04-03T10:12:23.893Z,31.20
2019-04-03T10:13:59.542Z,30.80
2019-04-03T10:15:35.683Z,30.50
2019-04-03T10:17:11.623Z,31.00
2019-04-03T10:18:47.525Z,30.70
2019-04-03T10:20:23.126Z,30.70
2019-04-03T10:21:58.654Z,30.30
2019-04-03T10:23:34.336Z,30.40
2019-04-03T10:25:10.553Z,30.10
2019-04-03T10:29:57.219Z,28.90
2019-04-03T10:31:32.737Z,28.50
2019-04-03T10:36:18.791Z,28.30
2019-04-03T10:37:54.323Z,28.40
2019-04-03T10:41:05.664Z,28.40
2019-04-03T10:42:41.367Z,27.70
2019-04-03T10:44:18.545Z,27.40
2019-04-03T10:45:54.073Z,27.40
2019-04-03T10:47:40.489Z,27.60
2019-04-03T10:49:06.831Z,27.00
2019-04-03T10:50:42.664Z,27.00
2019-04-03T10:53:53.770Z,26.40
2019-04-03T10:55:29.582Z,27.30
2019-04-03T10:57:05.487Z,26.80
2019-04-03T11:00:18.784Z,26.90
2019-04-03T11:03:29.533Z,27.20
2019-04-03T11:05:08.147Z,27.60
2019-04-03T11:06:43.718Z,26.70
2019-04-03T11:08:19.418Z,27.30
2019-04-03T11:09:55.281Z,27.00
2019-04-03T11:11:31.212Z,27.00
2019-04-03T11:13:06.969Z,27.30
2019-04-03T11:14:42.512Z,27.00
2019-04-03T11:16:18.202Z,27.10
2019-04-03T11:17:53.732Z,27.00
2019-04-03T11:19:29.586Z,26.30
2019-04-03T11:21:05.111Z,26.50
2019-04-03T11:24:19.161Z,27.00
2019-04-03T11:25:54.697Z,27.00
2019-04-03T11:27:42.527Z,27.10
2019-04-03T11:29:09.959Z,26.40
2019-04-03T11:30:45.383Z,26.80
2019-04-03T11:32:23.138Z,25.80
2019-04-03T11:33:58.368Z,26.40
2019-04-03T11:35:34.935Z,25.90
2019-04-03T11:37:10.774Z,27.50
2019-04-03T11:38:46.381Z,26.60
2019-04-03T11:40:24.687Z,27.40
2019-04-03T11:43:34.830Z,26.90
2019-04-03T11:45:11.204Z,26.60
2019-04-03T11:46:46.728Z,26.80
2019-04-03T11:48:22.367Z,27.50
2019-04-03T11:54:45.046Z,27.70
2019-04-03T11:56:20.680Z,27.50
2019-04-03T11:57:56.178Z,27.20
2019-04-03T11:59:31.702Z,27.00
2019-04-03T12:02:44.554Z,27.30
2019-04-03T12:04:20.309Z,27.50
2019-04-03T12:05:55.896Z,27.50
2019-04-03T12:12:18.816Z,27.50
2019-04-03T12:18:40.000Z,27.70
2019-04-03T12:20:18.307Z,28.40
2019-04-03T12:23:29.037Z,28.00
2019-04-03T12:25:05.983Z,27.50
2019-04-03T12:29:55.648Z,27.30
2019-04-03T12:31:32.918Z,27.90
2019-04-03T12:33:08.457Z,28.00
2019-04-03T12:34:43.986Z,27.90
2019-04-03T12:36:19.518Z,27.80
2019-04-03T12:37:55.054Z,28.30
2019-04-03T12:39:30.843Z,27.90
2019-04-03T12:44:19.270Z,29.90
2019-04-03T12:45:57.393Z,28.10
2019-04-03T12:49:08.785Z,28.00
2019-04-03T12:50:44.632Z,28.10
2019-04-03T12:52:21.290Z,28.40
2019-04-03T12:53:56.815Z,28.00
2019-04-03T13:00:22.710Z,28.30
2019-04-03T13:01:58.389Z,29.50
2019-04-03T13:03:36.415Z,29.80
2019-04-03T13:09:57.946Z,29.00
2019-04-03T13:13:09.694Z,29.00
2019-04-03T13:14:45.292Z,28.40
2019-04-03T13:17:57.797Z,32.60
2019-04-03T13:19:33.336Z,33.50
2019-04-03T13:21:09.981Z,33.20
2019-04-03T13:25:56.294Z,38.00
2019-04-03T13:27:32.728Z,32.30
2019-04-03T13:29:09.146Z,30.90
2019-04-03T13:32:22.096Z,29.40
2019-04-03T13:37:09.135Z,33.30
2019-04-03T13:45:12.596Z,40.60
2019-04-03T13:46:48.144Z,39.00
2019-04-03T13:51:34.284Z,33.20
2019-04-03T13:54:45.379Z,33.70
2019-04-03T13:56:23.196Z,34.40
2019-04-03T14:02:46.771Z,29.90
2019-04-03T14:04:23.553Z,29.90
2019-04-03T14:05:59.544Z,29.70
2019-04-03T14:07:35.273Z,29.40
2019-04-03T14:09:12.018Z,29.90
2019-04-03T14:12:22.726Z,29.60
2019-04-03T14:15:33.355Z,29.60
2019-04-03T14:17:08.893Z,30.30
2019-04-03T14:18:44.412Z,29.70
2019-04-03T14:21:59.977Z,29.70
2019-04-03T14:25:19.851Z,38.60
2019-04-03T14:29:59.800Z,41.60
2019-04-03T14:33:13.578Z,29.50
2019-04-03T14:34:49.268Z,29.60
2019-04-03T14:36:27.175Z,29.80
2019-04-03T14:38:02.106Z,29.80
2019-04-03T14:41:17.340Z,29.90
2019-04-03T14:42:51.755Z,30.00
2019-04-03T14:44:28.235Z,30.40
2019-04-03T14:46:04.013Z,30.50
2019-04-03T14:47:39.695Z,30.80
2019-04-03T14:49:16.711Z,30.70
2019-04-03T14:50:52.262Z,30.70
2019-04-03T14:52:27.817Z,30.00
2019-04-03T14:54:03.321Z,30.10
2019-04-03T14:55:47.066Z,30.20
2019-04-03T14:57:22.536Z,30.20
2019-04-03T14:58:53.725Z,30.20
2019-04-03T15:00:31.264Z,30.40
2019-04-03T15:02:06.941Z,30.60
2019-04-03T15:03:42.571Z,30.70
2019-04-03T15:05:18.653Z,30.70
2019-04-03T15:07:02.158Z,30.50
2019-04-03T15:08:31.584Z,30.50
2019-04-03T15:10:07.720Z,30.10
2019-04-03T15:11:43.252Z,29.90
2019-04-03T15:13:19.064Z,29.90
2019-04-03T15:14:55.608Z,29.90
2019-04-03T15:16:32.289Z,30.00
2019-04-03T15:18:10.053Z,30.00
2019-04-03T15:19:46.585Z,30.00
2019-04-03T15:21:23.699Z,30.00
2019-04-03T15:22:59.757Z,30.20
2019-04-03T15:24:35.336Z,30.50
2019-04-03T15:26:10.855Z,30.60
2019-04-03T15:27:47.155Z,30.90
2019-04-03T15:29:23.014Z,30.70
2019-04-03T15:31:00.886Z,30.60
2019-04-03T15:32:36.505Z,30.60
2019-04-03T15:34:12.032Z,30.70
2019-04-03T15:35:47.557Z,30.60
2019-04-03T15:37:24.225Z,30.80
2019-04-03T15:38:59.950Z,31.00
2019-04-03T15:40:35.557Z,31.00
2019-04-03T15:42:11.110Z,31.10
2019-04-03T15:43:50.746Z,31.10
2019-04-03T15:45:25.486Z,30.90
2019-04-03T15:47:02.239Z,31.00
2019-04-03T15:48:39.956Z,30.90
2019-04-03T15:50:16.881Z,31.20
2019-04-03T15:51:52.568Z,31.30
2019-04-03T15:53:28.202Z,31.40
2019-04-03T15:55:06.418Z,31.40
2019-04-03T15:56:44.525Z,31.30
2019-04-03T15:58:19.569Z,31.30
2019-04-03T15:59:55.091Z,31.20
2019-04-03T16:01:31.064Z,31.30
2019-04-03T16:03:06.730Z,31.40
2019-04-03T16:04:43.090Z,31.30
2019-04-03T16:06:18.939Z,31.40
2019-04-03T16:07:54.555Z,31.50
2019-04-03T16:09:30.080Z,31.70
2019-04-03T16:11:05.970Z,31.70
2019-04-03T16:12:43.138Z,32.10
2019-04-03T16:14:20.423Z,32.40
2019-04-03T16:15:59.721Z,32.60
2019-04-03T16:17:34.167Z,32.50
2019-04-03T16:19:11.370Z,32.70
2019-04-03T16:20:49.086Z,32.70
2019-04-03T16:22:24.857Z,32.60
2019-04-03T16:24:00.656Z,32.60
2019-04-03T16:25:36.204Z,32.70
2019-04-03T16:27:12.043Z,32.50
2019-04-03T16:28:47.567Z,32.50
2019-04-03T16:30:23.177Z,32.70
2019-04-03T16:31:58.706Z,32.80
2019-04-03T16:33:35.794Z,32.70
2019-04-03T16:35:13.752Z,32.80
2019-04-03T16:36:50.255Z,32.90
2019-04-03T16:38:28.482Z,32.80
2019-04-03T16:40:05.011Z,32.80
2019-04-03T16:41:43.091Z,32.70
2019-04-03T16:43:17.983Z,32.70
2019-04-03T16:44:54.614Z,32.80
2019-04-03T16:46:30.233Z,32.80
2019-04-03T16:48:06.564Z,32.80
2019-04-03T16:49:42.136Z,33.00
2019-04-03T16:51:18.171Z,33.10
2019-04-03T16:52:54.843Z,33.30
2019-04-03T16:54:31.962Z,33.30
2019-04-03T16:56:07.603Z,34.20
2019-04-03T16:57:43.135Z,33.70
2019-04-03T16:59:19.020Z,34.20
2019-04-03T17:00:55.187Z,33.60
2019-04-03T17:02:30.743Z,33.70
2019-04-03T17:04:08.828Z,33.70
2019-04-03T17:05:44.551Z,33.80
2019-04-03T17:07:22.216Z,33.80
2019-04-03T17:08:58.647Z,33.80
2019-04-03T17:10:35.547Z,33.80
2019-04-03T17:12:11.153Z,33.80
2019-04-03T17:13:46.676Z,33.80
2019-04-03T17:15:22.355Z,33.90
2019-04-03T17:16:57.861Z,33.90
2019-04-03T17:18:33.473Z,33.80
2019-04-03T17:20:09.568Z,33.70
2019-04-03T17:21:45.056Z,33.50
2019-04-03T17:23:20.578Z,33.30
2019-04-03T17:24:56.526Z,33.40
2019-04-03T17:26:32.181Z,33.40
2019-04-03T17:28:09.995Z,33.50
2019-04-03T17:29:46.668Z,33.40
2019-04-03T17:31:23.523Z,33.60
2019-04-03T17:33:02.050Z,33.70
2019-04-03T17:34:37.704Z,33.90
2019-04-03T17:36:15.422Z,33.90
2019-04-03T17:37:50.947Z,34.20
2019-04-03T17:39:26.653Z,34.30
2019-04-03T17:41:02.179Z,34.50
2019-04-03T17:42:39.491Z,34.70
2019-04-03T17:44:14.923Z,34.70
2019-04-03T17:45:50.454Z,34.80
2019-04-03T17:47:27.014Z,34.80
2019-04-03T17:49:02.535Z,34.80
2019-04-03T17:50:38.403Z,35.00
2019-04-03T17:52:13.929Z,34.90
2019-04-03T17:53:49.458Z,35.10
2019-04-03T17:55:24.986Z,35.10
2019-04-03T17:57:00.532Z,35.20
2019-04-03T17:58:36.075Z,35.30
2019-04-03T18:00:15.650Z,35.50
2019-04-03T18:01:52.478Z,35.60
2019-04-03T18:03:28.582Z,35.70
2019-04-03T18:05:06.517Z,35.80
2019-04-03T18:06:42.048Z,35.80
2019-04-03T18:08:17.590Z,36.00
2019-04-03T18:09:53.120Z,36.00
2019-04-03T18:11:28.717Z,36.20
2019-04-03T18:13:04.334Z,36.30
2019-04-03T18:14:39.884Z,36.40
2019-04-03T18:16:15.751Z,36.50
2019-04-03T18:17:51.289Z,36.60
2019-04-03T18:19:36.825Z,36.60
2019-04-03T18:21:04.064Z,36.70
2019-04-03T18:22:39.603Z,36.70
2019-04-03T18:24:16.250Z,36.90
2019-04-03T18:25:51.766Z,36.90
2019-04-03T18:27:27.292Z,37.00
2019-04-03T18:29:03.129Z,37.00
2019-04-03T18:30:38.648Z,37.10
2019-04-03T18:32:15.449Z,37.20
2019-04-03T18:33:51.596Z,37.30
2019-04-03T18:35:27.115Z,37.40
2019-04-03T18:37:04.034Z,37.40
2019-04-03T18:38:39.981Z,37.60
2019-04-03T18:40:15.648Z,37.70
2019-04-03T18:41:51.219Z,37.70
2019-04-03T18:43:26.789Z,37.90
2019-04-03T18:45:02.332Z,37.90
2019-04-03T18:46:38.104Z,38.10
2019-04-03T18:48:16.308Z,38.30
2019-04-03T18:49:50.867Z,38.40
2019-04-03T18:51:26.396Z,38.40
2019-04-03T18:53:02.246Z,38.60
2019-04-03T18:54:37.777Z,38.60
2019-04-03T18:56:15.615Z,38.90
2019-04-03T18:57:52.970Z,38.80
2019-04-03T18:59:28.494Z,39.10
2019-04-03T19:01:04.081Z,39.10
2019-04-03T19:02:39.612Z,39.50
2019-04-03T19:04:15.974Z,39.40
2019-04-03T19:05:52.473Z,39.60
2019-04-03T19:07:28.009Z,39.80
2019-04-03T19:09:10.078Z,39.80
2019-04-03T19:10:42.403Z,40.00
2019-04-03T19:12:18.185Z,40.00
2019-04-03T19:13:53.729Z,40.10
2019-04-03T19:15:29.524Z,40.10
2019-04-03T19:17:05.316Z,40.10
2019-04-03T19:18:40.851Z,40.20
2019-04-03T19:20:16.642Z,40.30
2019-04-03T19:21:54.352Z,40.30
2019-04-03T19:23:29.365Z,41.00
2019-04-03T19:25:09.613Z,40.40
2019-04-03T19:26:45.140Z,40.50
2019-04-03T19:28:20.738Z,40.80
2019-04-03T19:29:56.264Z,40.80
2019-04-03T19:31:32.132Z,40.80
2019-04-03T19:33:07.945Z,40.80
2019-04-03T19:34:43.993Z,41.00
2019-04-03T19:36:20.331Z,41.20
2019-04-03T19:37:56.139Z,41.30
2019-04-03T19:39:32.381Z,41.30
2019-04-03T19:41:07.927Z,41.30
2019-04-03T19:42:44.358Z,41.70
2019-04-03T19:44:20.043Z,41.90
2019-04-03T19:45:55.550Z,41.80
2019-04-03T19:47:31.371Z,42.30
2019-04-03T19:49:06.946Z,42.50
2019-04-03T19:50:42.468Z,42.60
2019-04-03T19:52:17.992Z,42.60
2019-04-03T19:53:59.680Z,42.40
2019-04-03T19:55:32.969Z,42.10
2019-04-03T19:57:08.501Z,42.60
2019-04-03T19:58:44.044Z,42.70
2019-04-03T20:00:20.914Z,42.80
2019-04-03T20:01:56.431Z,43.80
2019-04-03T20:03:33.574Z,42.90
2019-04-03T20:05:09.535Z,42.50
2019-04-03T20:06:45.141Z,42.70
2019-04-03T20:08:20.682Z,42.70
2019-04-03T20:09:56.268Z,42.80
2019-04-03T20:11:31.795Z,42.70
2019-04-03T20:13:08.793Z,42.70
2019-04-03T20:14:57.440Z,43.00
2019-04-03T20:16:24.286Z,42.90
2019-04-03T20:17:59.222Z,42.80
2019-04-03T20:19:35.064Z,42.80
2019-04-03T20:21:10.597Z,42.80
2019-04-03T20:22:46.118Z,42.80
2019-04-03T20:24:21.651Z,42.20
2019-04-03T20:25:57.539Z,42.70
2019-04-03T20:27:33.114Z,42.70
2019-04-03T20:29:08.678Z,42.80
2019-04-03T20:30:44.235Z,42.60
2019-04-03T20:32:19.761Z,42.80
2019-04-03T20:33:55.639Z,42.70
2019-04-03T20:35:31.163Z,42.80
2019-04-03T20:37:06.693Z,43.60
2019-04-03T20:38:42.220Z,42.80
2019-04-03T20:40:17.765Z,42.80
2019-04-03T20:41:53.286Z,43.10
2019-04-03T20:43:28.831Z,43.00
2019-04-03T20:45:06.961Z,42.90
2019-04-03T20:46:42.493Z,42.70
2019-04-03T20:48:18.030Z,42.80
2019-04-03T20:49:53.561Z,42.90
2019-04-03T20:51:29.098Z,42.80
2019-04-03T20:53:04.619Z,42.70
2019-04-03T20:54:40.193Z,42.70
2019-04-03T20:56:15.720Z,42.70
2019-04-03T20:57:55.972Z,43.00
2019-04-03T20:59:30.213Z,42.80
2019-04-03T21:01:07.354Z,42.80
2019-04-03T21:02:43.034Z,43.30
2019-04-03T21:04:18.568Z,43.40
2019-04-03T21:05:54.088Z,43.20
2019-04-03T21:07:29.619Z,43.30
2019-04-03T21:09:07.305Z,43.10
2019-04-03T21:10:43.707Z,43.00
2019-04-03T21:12:19.251Z,43.20
2019-04-03T21:13:54.776Z,43.20
2019-04-03T21:15:30.316Z,43.40
2019-04-03T21:17:05.915Z,43.40
2019-04-03T21:18:41.449Z,43.20
2019-04-03T21:20:16.981Z,43.20
2019-04-03T21:21:52.522Z,43.30
2019-04-03T21:23:28.046Z,43.70
2019-04-03T21:25:05.306Z,43.40
2019-04-03T21:26:41.570Z,43.70
2019-04-03T21:28:17.098Z,43.70
2019-04-03T21:29:52.930Z,43.70
2019-04-03T21:31:28.459Z,43.80
2019-04-03T21:33:03.989Z,44.10
2019-04-03T21:34:39.520Z,43.50
2019-04-03T21:36:15.042Z,43.70
2019-04-03T21:39:25.959Z,43.20
2019-04-03T21:41:01.482Z,43.80
2019-04-03T21:42:37.026Z,43.70
2019-04-03T21:44:12.560Z,43.80
2019-04-03T21:45:48.091Z,43.90
2019-04-03T21:47:23.618Z,43.90
2019-04-03T21:48:59.140Z,43.90
2019-04-03T21:50:34.670Z,43.80
2019-04-03T21:52:10.204Z,43.90
2019-04-03T21:53:45.721Z,43.90
2019-04-03T21:55:21.269Z,43.80
2019-04-03T21:56:57.098Z,44.00
2019-04-03T21:58:32.662Z,43.90
2019-04-03T22:00:13.951Z,43.90
2019-04-03T22:01:51.439Z,44.10
2019-04-03T22:03:26.959Z,44.10
2019-04-03T22:05:02.497Z,44.00
2019-04-03T22:06:39.094Z,43.90
2019-04-03T22:08:14.616Z,44.00
2019-04-03T22:09:50.428Z,44.10
2019-04-03T22:11:25.954Z,44.10
2019-04-03T22:13:01.480Z,44.30
2019-04-03T22:14:37.021Z,44.20
2019-04-03T22:16:12.896Z,44.10
2019-04-03T22:17:48.416Z,44.00
2019-04-03T22:19:23.978Z,44.20
2019-04-03T22:21:01.574Z,43.90
2019-04-03T22:22:37.007Z,44.00
2019-04-03T22:24:12.551Z,44.20
2019-04-03T22:25:48.065Z,44.20
2019-04-03T22:27:23.592Z,44.10
2019-04-03T22:28:59.116Z,44.40
2019-04-03T22:30:34.651Z,44.40
2019-04-03T22:32:10.169Z,44.40
2019-04-03T22:33:45.692Z,44.50
2019-04-03T22:35:21.224Z,44.70
2019-04-03T22:36:57.000Z,44.60
2019-04-03T22:38:36.992Z,44.60
2019-04-03T22:40:11.127Z,44.50
2019-04-03T22:41:46.642Z,44.70
2019-04-03T22:43:22.247Z,44.70
2019-04-03T22:44:57.780Z,44.60
2019-04-03T22:46:33.310Z,44.60
2019-04-03T22:48:08.831Z,44.60
2019-04-03T22:49:44.645Z,44.50
2019-04-03T22:51:20.176Z,44.50
2019-04-03T22:52:56.034Z,45.10
2019-04-03T22:54:31.571Z,44.60
2019-04-03T22:56:07.169Z,44.60
2019-04-03T22:57:42.783Z,44.80
2019-04-03T22:59:18.314Z,44.80
2019-04-03T23:00:53.852Z,44.70
2019-04-03T23:02:29.857Z,44.60
2019-04-03T23:04:06.617Z,44.60
2019-04-03T23:05:43.395Z,44.60
2019-04-03T23:07:20.877Z,44.50
2019-04-03T23:08:56.147Z,44.60
2019-04-03T23:10:31.675Z,44.60
2019-04-03T23:12:07.204Z,44.70
2019-04-03T23:13:43.666Z,44.70
2019-04-03T23:15:19.181Z,44.70
2019-04-03T23:16:55.015Z,44.60
2019-04-03T23:18:30.544Z,44.60
2019-04-03T23:20:08.019Z,44.70
2019-04-03T23:21:44.510Z,44.70
2019-04-03T23:23:20.035Z,44.70
2019-04-03T23:24:55.582Z,44.80
2019-04-03T23:26:32.167Z,44.90
2019-04-03T23:28:08.407Z,44.80